createdAt,value
2022-09-17T00:01:33.817Z,3.35
2022-09-17T00:04:04.721Z,2.72
2022-09-17T00:06:36.107Z,2.72
2022-09-17T00:09:07.172Z,2.40
2022-09-17T00:11:40.069Z,2.75
2022-09-17T00:14:15.854Z,2.63
2022-09-17T00:16:47.820Z,2.47
2022-09-17T00:19:26.110Z,2.72
2022-09-17T00:21:55.481Z,2.50
2022-09-17T00:24:23.344Z,2.53
2022-09-17T00:26:52.143Z,2.53
2022-09-17T00:29:20.016Z,2.70
2022-09-17T00:31:47.980Z,2.63
2022-09-17T00:34:16.309Z,3.38
2022-09-17T00:36:44.283Z,2.95
2022-09-17T00:39:15.827Z,3.20
2022-09-17T00:41:45.009Z,3.17
2022-09-17T00:44:42.779Z,2.60
2022-09-17T00:47:22.425Z,3.30
2022-09-17T00:50:06.338Z,3.25
2022-09-17T00:52:59.872Z,3.40
2022-09-17T00:55:48.837Z,3.10
2022-09-17T00:58:21.139Z,2.63
2022-09-17T01:00:49.399Z,3.35
2022-09-17T01:03:17.731Z,3.13
2022-09-17T01:06:09.507Z,3.22
2022-09-17T01:09:08.455Z,3.38
2022-09-17T01:11:54.656Z,2.65
2022-09-17T01:15:02.064Z,3.08
2022-09-17T01:17:58.946Z,2.60
2022-09-17T01:21:03.962Z,3.00
2022-09-17T01:24:01.010Z,3.25
2022-09-17T01:26:47.403Z,3.00
2022-09-17T01:29:39.709Z,2.60
2022-09-17T01:32:38.933Z,2.80
2022-09-17T01:35:26.458Z,3.20
2022-09-17T01:38:18.202Z,3.30
2022-09-17T01:41:08.917Z,3.10
2022-09-17T01:44:10.923Z,3.08
2022-09-17T01:46:53.377Z,3.10
2022-09-17T01:49:25.563Z,3.50
2022-09-17T01:51:55.375Z,3.10
2022-09-17T01:54:31.144Z,3.28
2022-09-17T01:57:26.237Z,3.38
2022-09-17T02:00:07.540Z,3.20
2022-09-17T02:03:20.480Z,3.15
2022-09-17T02:06:01.221Z,3.17
2022-09-17T02:09:22.806Z,3.10
2022-09-17T02:11:55.939Z,3.25
2022-09-17T02:14:33.601Z,3.17
2022-09-17T02:17:20.700Z,3.42
2022-09-17T02:19:49.560Z,3.13
2022-09-17T02:22:43.254Z,2.88
2022-09-17T02:25:33.916Z,3.53
2022-09-17T02:28:32.896Z,3.08
2022-09-17T02:31:02.149Z,3.30
2022-09-17T02:33:33.393Z,3.45
2022-09-17T02:36:02.476Z,2.80
2022-09-17T02:38:32.121Z,3.05
2022-09-17T02:41:23.636Z,3.20
2022-09-17T02:44:29.715Z,3.20
2022-09-17T02:47:29.045Z,3.05
2022-09-17T02:50:30.620Z,3.25
2022-09-17T02:53:38.452Z,3.33
2022-09-17T02:56:38.542Z,2.75
2022-09-17T02:59:26.898Z,3.08
2022-09-17T03:02:13.709Z,3.15
2022-09-17T03:04:42.586Z,3.20
2022-09-17T03:07:13.138Z,4.93
2022-09-17T03:09:43.729Z,3.65
2022-09-17T03:12:12.532Z,3.42
2022-09-17T03:14:40.330Z,3.58
2022-09-17T03:17:08.701Z,3.67
2022-09-17T03:19:36.655Z,3.85
2022-09-17T03:22:04.550Z,4.07
2022-09-17T03:24:32.590Z,4.28
2022-09-17T03:27:00.462Z,3.88
2022-09-17T03:29:28.216Z,3.50
2022-09-17T03:31:56.288Z,3.85
2022-09-17T03:34:24.481Z,3.67
2022-09-17T03:36:52.435Z,3.60
2022-09-17T03:39:20.512Z,4.15
2022-09-17T03:41:48.361Z,3.80
2022-09-17T03:44:16.326Z,4.28
2022-09-17T03:46:44.559Z,4.32
2022-09-17T03:49:12.417Z,4.13
2022-09-17T03:51:40.212Z,4.45
2022-09-17T03:54:08.560Z,4.35
2022-09-17T03:56:36.398Z,4.50
2022-09-17T03:59:04.331Z,4.90
2022-09-17T04:01:32.706Z,4.55
2022-09-17T04:04:00.795Z,4.35
2022-09-17T04:06:28.644Z,4.95
2022-09-17T04:08:57.101Z,4.40
2022-09-17T04:11:24.920Z,4.47
2022-09-17T04:13:52.850Z,4.80
2022-09-17T04:16:20.965Z,4.65
2022-09-17T04:18:48.864Z,4.28
2022-09-17T04:21:17.148Z,4.43
2022-09-17T04:23:45.372Z,4.40
2022-09-17T04:26:13.766Z,4.05
2022-09-17T04:28:41.628Z,4.53
2022-09-17T04:31:09.688Z,4.15
2022-09-17T04:33:37.767Z,4.38
2022-09-17T04:36:05.703Z,4.63
2022-09-17T04:38:33.833Z,4.45
2022-09-17T04:41:01.628Z,4.13
2022-09-17T04:43:29.753Z,4.60
2022-09-17T04:45:59.326Z,4.38
2022-09-17T04:48:27.157Z,4.25
2022-09-17T04:50:55.065Z,4.20
2022-09-17T04:53:23.174Z,5.15
2022-09-17T04:55:51.215Z,4.57
2022-09-17T04:58:20.195Z,4.60
2022-09-17T05:00:49.044Z,4.97
2022-09-17T05:03:17.413Z,4.65
2022-09-17T05:05:45.199Z,4.72
2022-09-17T05:08:13.321Z,4.63
2022-09-17T05:10:41.183Z,3.88
2022-09-17T05:13:08.976Z,4.25
2022-09-17T05:15:37.320Z,4.13
2022-09-17T05:18:05.212Z,4.35
2022-09-17T05:20:33.111Z,5.43
2022-09-17T05:23:01.246Z,6.28
2022-09-17T05:25:29.117Z,6.00
2022-09-17T05:27:57.205Z,5.18
2022-09-17T05:30:26.138Z,4.55
2022-09-17T05:33:07.119Z,4.15
2022-09-17T05:35:36.892Z,4.20
2022-09-17T05:38:07.830Z,5.05
2022-09-17T05:40:37.716Z,6.13
2022-09-17T05:43:08.079Z,4.63
2022-09-17T05:45:37.678Z,4.00
2022-09-17T05:48:12.587Z,4.38
2022-09-17T05:50:41.584Z,5.03
2022-09-17T05:53:12.992Z,4.20
2022-09-17T05:55:41.362Z,2.85
2022-09-17T05:58:18.825Z,3.28
2022-09-17T06:00:49.069Z,2.60
2022-09-17T06:03:19.832Z,2.90
2022-09-17T06:05:56.765Z,2.60
2022-09-17T06:08:27.560Z,2.60
2022-09-17T06:11:00.150Z,2.53
2022-09-17T06:13:29.784Z,2.30
2022-09-17T06:15:58.230Z,3.05
2022-09-17T06:18:27.150Z,2.70
2022-09-17T06:21:00.357Z,3.40
2022-09-17T06:23:35.350Z,3.42
2022-09-17T06:26:05.867Z,6.05
2022-09-17T06:28:40.553Z,6.32
2022-09-17T06:31:12.560Z,7.30
2022-09-17T06:33:40.771Z,3.33
2022-09-17T06:36:14.021Z,3.60
2022-09-17T06:38:43.059Z,2.70
2022-09-17T06:41:11.251Z,2.10
2022-09-17T06:43:39.301Z,1.90
2022-09-17T06:46:09.518Z,2.28
2022-09-17T06:48:38.685Z,1.98
2022-09-17T06:51:10.607Z,2.25
2022-09-17T06:53:39.756Z,2.40
2022-09-17T06:56:09.296Z,2.08
2022-09-17T06:58:38.337Z,1.88
2022-09-17T07:01:06.641Z,2.20
2022-09-17T07:03:34.836Z,2.35
2022-09-17T07:06:03.440Z,2.03
2022-09-17T07:08:39.384Z,2.08
2022-09-17T07:11:08.493Z,1.77
2022-09-17T07:13:39.201Z,1.83
2022-09-17T07:16:08.088Z,1.75
2022-09-17T07:18:37.133Z,2.05
2022-09-17T07:21:06.870Z,1.70
2022-09-17T07:23:38.376Z,1.40
2022-09-17T07:28:45.999Z,1.80
2022-09-17T07:31:16.709Z,1.70
2022-09-17T07:33:46.111Z,1.77
2022-09-17T07:36:19.450Z,1.77
2022-09-17T07:38:47.723Z,1.70
2022-09-17T07:41:17.993Z,1.90
2022-09-17T07:43:46.394Z,1.40
2022-09-17T07:46:20.797Z,1.42
2022-09-17T07:48:50.753Z,1.50
2022-09-17T07:51:22.663Z,1.30
2022-09-17T07:53:59.006Z,1.40
2022-09-17T07:56:28.882Z,1.25
2022-09-17T07:58:57.382Z,1.70
2022-09-17T08:01:27.309Z,1.65
2022-09-17T08:03:55.683Z,1.70
2022-09-17T08:06:27.024Z,1.45
2022-09-17T08:08:57.284Z,1.33
2022-09-17T08:11:45.043Z,1.25
2022-09-17T08:14:17.359Z,1.27
2022-09-17T08:16:47.551Z,1.63
2022-09-17T08:19:15.876Z,1.40
2022-09-17T08:21:43.864Z,1.48
2022-09-17T08:24:11.753Z,1.70
2022-09-17T08:26:40.645Z,1.85
2022-09-17T08:29:08.844Z,1.60
2022-09-17T08:31:37.384Z,1.60
2022-09-17T08:34:11.359Z,1.65
2022-09-17T08:36:39.222Z,1.67
2022-09-17T08:39:07.313Z,1.30
2022-09-17T08:41:52.533Z,1.45
2022-09-17T08:44:47.560Z,1.27
2022-09-17T08:47:51.047Z,1.50
2022-09-17T08:50:31.670Z,1.67
2022-09-17T08:53:14.607Z,1.58
2022-09-17T08:55:53.874Z,1.25
2022-09-17T08:58:49.535Z,1.23
2022-09-17T09:02:04.525Z,1.38
2022-09-17T09:05:04.894Z,1.20
2022-09-17T09:07:43.383Z,1.00
2022-09-17T09:10:50.537Z,1.00
2022-09-17T09:13:21.692Z,1.02
2022-09-17T09:16:02.988Z,1.10
2022-09-17T09:18:35.933Z,1.35
2022-09-17T09:21:23.823Z,1.23
2022-09-17T09:24:10.412Z,1.27
2022-09-17T09:26:48.493Z,1.40
2022-09-17T09:29:43.378Z,1.15
2022-09-17T09:33:00.500Z,1.13
2022-09-17T09:35:33.121Z,1.20
2022-09-17T09:38:31.430Z,1.30
2022-09-17T09:41:26.732Z,1.15
2022-09-17T09:44:10.822Z,1.80
2022-09-17T09:46:51.022Z,1.20
2022-09-17T09:49:55.481Z,1.00
2022-09-17T09:52:33.022Z,1.02
2022-09-17T09:55:31.518Z,1.00
2022-09-17T09:58:39.694Z,0.90
2022-09-17T10:01:21.170Z,1.23
2022-09-17T10:03:52.714Z,1.33
2022-09-17T10:06:20.992Z,1.00
2022-09-17T10:08:58.364Z,1.40
2022-09-17T10:11:33.216Z,1.40
2022-09-17T10:14:27.179Z,1.00
2022-09-17T10:17:27.743Z,1.02
2022-09-17T10:20:11.171Z,1.13
2022-09-17T10:22:42.746Z,1.02
2022-09-17T10:28:06.011Z,1.33
2022-09-17T10:30:35.855Z,1.05
2022-09-17T10:33:23.036Z,1.17
2022-09-17T10:36:15.043Z,1.23
2022-09-17T10:38:47.380Z,0.90
2022-09-17T10:41:23.431Z,0.93
2022-09-17T10:43:52.026Z,1.05
2022-09-17T10:46:30.761Z,0.82
2022-09-17T10:49:18.165Z,0.77
2022-09-17T10:51:46.445Z,1.17
2022-09-17T10:54:58.422Z,1.30
2022-09-17T10:57:56.984Z,1.25
2022-09-17T11:00:26.957Z,1.15
2022-09-17T11:03:38.279Z,1.20
2022-09-17T11:06:31.209Z,1.20
2022-09-17T11:09:13.975Z,1.60
2022-09-17T11:12:18.092Z,1.50
2022-09-17T11:15:15.806Z,1.27
2022-09-17T11:18:09.065Z,1.73
2022-09-17T11:21:18.187Z,1.20
2022-09-17T11:23:57.929Z,1.40
2022-09-17T11:27:23.872Z,1.30
2022-09-17T11:30:17.485Z,1.40
2022-09-17T11:33:04.556Z,1.77
2022-09-17T11:36:02.439Z,1.38
2022-09-17T11:38:43.531Z,1.33
2022-09-17T11:41:28.356Z,1.48
2022-09-17T11:44:32.436Z,1.73
2022-09-17T11:47:17.390Z,1.40
2022-09-17T11:50:05.603Z,2.15
2022-09-17T11:53:07.807Z,2.05
2022-09-17T11:55:53.333Z,1.83
2022-09-17T11:58:42.551Z,1.23
2022-09-17T12:01:25.163Z,1.50
2022-09-17T12:04:30.390Z,1.60
2022-09-17T12:07:42.259Z,1.75
2022-09-17T12:10:30.405Z,1.60
2022-09-17T12:14:00.304Z,1.40
2022-09-17T12:16:46.586Z,1.60
2022-09-17T12:19:49.376Z,1.52
2022-09-17T12:22:36.985Z,1.48
2022-09-17T12:25:13.291Z,1.65
2022-09-17T12:27:53.987Z,1.50
2022-09-17T12:30:32.766Z,1.80
2022-09-17T12:33:15.302Z,1.25
2022-09-17T12:36:43.641Z,1.45
2022-09-17T12:39:38.699Z,2.33
2022-09-17T12:42:46.046Z,1.63
2022-09-17T12:45:50.008Z,1.40
2022-09-17T12:49:19.623Z,1.50
2022-09-17T12:52:04.226Z,1.70
2022-09-17T12:54:53.991Z,1.92
2022-09-17T12:58:09.737Z,1.55
2022-09-17T13:01:06.755Z,1.75
2022-09-17T13:04:01.488Z,1.80
2022-09-17T13:07:04.806Z,2.10
2022-09-17T13:10:06.533Z,1.90
2022-09-17T13:13:00.224Z,2.03
2022-09-17T13:16:15.644Z,1.75
2022-09-17T13:19:26.750Z,1.83
2022-09-17T13:22:03.758Z,1.85
2022-09-17T13:24:36.132Z,1.80
2022-09-17T13:27:07.201Z,2.17
2022-09-17T13:29:45.812Z,1.80
2022-09-17T13:32:33.652Z,2.10
2022-09-17T13:35:17.623Z,2.30
2022-09-17T13:38:06.820Z,1.90
2022-09-17T13:40:37.735Z,1.90
2022-09-17T13:43:11.277Z,1.80
2022-09-17T13:46:03.982Z,2.13
2022-09-17T13:48:35.405Z,2.63
2022-09-17T13:51:34.916Z,3.10
2022-09-17T13:54:10.935Z,3.22
2022-09-17T13:56:47.433Z,2.20
2022-09-17T13:59:29.463Z,2.30
2022-09-17T14:02:01.299Z,1.90
2022-09-17T14:04:34.669Z,2.08
2022-09-17T14:07:29.025Z,2.00
2022-09-17T14:10:02.999Z,2.50
2022-09-17T14:12:47.331Z,2.95
2022-09-17T14:15:54.963Z,1.88
2022-09-17T14:18:29.498Z,3.92
2022-09-17T14:21:17.562Z,12.90
2022-09-17T14:23:53.250Z,2.00
2022-09-17T14:26:40.041Z,2.10
2022-09-17T14:29:30.301Z,2.17
2022-09-17T14:31:58.717Z,2.08
2022-09-17T14:34:27.484Z,2.20
2022-09-17T14:36:56.970Z,2.35
2022-09-17T14:39:38.360Z,1.90
2022-09-17T14:42:21.023Z,2.00
2022-09-17T14:45:00.497Z,2.33
2022-09-17T14:47:28.616Z,2.58
2022-09-17T14:50:26.448Z,1.98
2022-09-17T14:52:55.011Z,2.10
2022-09-17T14:55:31.486Z,2.10
2022-09-17T14:58:04.980Z,1.90
2022-09-17T15:00:39.035Z,2.08
2022-09-17T15:03:20.929Z,1.80
2022-09-17T15:05:51.205Z,1.83
2022-09-17T15:08:23.905Z,1.55
2022-09-17T15:11:02.422Z,1.65
2022-09-17T15:13:44.830Z,1.60
2022-09-17T15:16:30.871Z,1.23
2022-09-17T15:19:01.812Z,1.40
2022-09-17T15:21:45.682Z,4.10
2022-09-17T15:24:35.700Z,2.45
2022-09-17T15:27:18.860Z,1.50
2022-09-17T15:29:52.365Z,1.30
2022-09-17T15:32:21.184Z,1.55
2022-09-17T15:35:14.088Z,1.27
2022-09-17T15:40:41.764Z,1.13
2022-09-17T15:43:35.526Z,1.45
2022-09-17T15:46:21.945Z,1.52
2022-09-17T15:48:51.213Z,1.52
2022-09-17T15:51:35.791Z,1.45
2022-09-17T15:54:31.618Z,1.50
2022-09-17T15:57:05.028Z,1.70
2022-09-17T15:59:35.272Z,2.10
2022-09-17T16:02:03.553Z,2.00
2022-09-17T16:04:33.841Z,1.90
2022-09-17T16:07:24.440Z,1.90
2022-09-17T16:09:53.737Z,2.20
2022-09-17T16:12:25.901Z,2.28
2022-09-17T16:14:57.093Z,2.60
2022-09-17T16:17:37.531Z,2.45
2022-09-17T16:20:17.714Z,2.58
2022-09-17T16:22:48.497Z,2.88
2022-09-17T16:25:19.131Z,3.15
2022-09-17T16:27:50.222Z,4.72
2022-09-17T16:30:24.031Z,3.10
2022-09-17T16:32:53.927Z,2.90
2022-09-17T16:35:25.185Z,3.33
2022-09-17T16:37:56.019Z,3.47
2022-09-17T16:40:30.338Z,3.53
2022-09-17T16:43:03.819Z,2.85
2022-09-17T16:45:32.393Z,2.50
2022-09-17T16:48:01.129Z,2.58
2022-09-17T16:50:30.840Z,2.55
2022-09-17T16:53:04.128Z,2.30
2022-09-17T16:55:33.328Z,2.38
2022-09-17T16:58:01.730Z,2.22
2022-09-17T17:00:30.303Z,3.10
2022-09-17T17:02:59.625Z,4.80
2022-09-17T17:05:27.958Z,4.97
2022-09-17T17:07:57.058Z,3.75
2022-09-17T17:10:29.723Z,3.08
2022-09-17T17:12:57.926Z,3.30
2022-09-17T17:15:26.180Z,3.47
2022-09-17T17:17:54.359Z,2.78
2022-09-17T17:20:25.272Z,3.05
2022-09-17T17:22:53.310Z,3.88
2022-09-17T17:25:21.454Z,4.68
2022-09-17T17:27:49.691Z,10.13
2022-09-17T17:30:18.485Z,12.30
2022-09-17T17:32:52.989Z,13.20
2022-09-17T17:35:20.997Z,12.70
2022-09-17T17:37:49.229Z,9.00
2022-09-17T17:40:18.043Z,7.22
2022-09-17T17:42:51.283Z,12.48
2022-09-17T17:45:19.402Z,7.82
2022-09-17T17:47:47.497Z,8.27
2022-09-17T17:50:16.134Z,6.97
2022-09-17T17:52:48.252Z,6.95
2022-09-17T17:55:17.162Z,13.02
2022-09-17T17:57:45.160Z,10.35
2022-09-17T18:00:14.976Z,8.85
2022-09-17T18:02:44.576Z,10.85
2022-09-17T18:05:12.750Z,12.80
2022-09-17T18:07:41.017Z,10.50
2022-09-17T18:10:09.670Z,10.35
2022-09-17T18:12:37.555Z,9.40
2022-09-17T18:15:07.435Z,9.77
2022-09-17T18:17:36.485Z,8.95
2022-09-17T18:20:05.522Z,9.07
2022-09-17T18:22:33.872Z,9.32
2022-09-17T18:25:01.825Z,9.15
2022-09-17T18:27:32.943Z,9.00
2022-09-17T18:30:02.278Z,8.40
2022-09-17T18:32:30.684Z,9.45
2022-09-17T18:34:58.553Z,11.23
2022-09-17T18:37:29.172Z,10.00
2022-09-17T18:39:58.858Z,10.70
2022-09-17T18:42:28.483Z,10.02
2022-09-17T18:44:56.777Z,9.98
2022-09-17T18:47:24.759Z,10.80
2022-09-17T18:49:53.338Z,10.88
2022-09-17T18:52:22.780Z,10.40
2022-09-17T18:54:52.258Z,10.63
2022-09-17T18:57:20.550Z,9.73
2022-09-17T18:59:48.634Z,9.80
2022-09-17T19:02:17.829Z,9.38
2022-09-17T19:04:45.911Z,9.82
2022-09-17T19:07:14.326Z,9.07
2022-09-17T19:09:42.464Z,9.52
2022-09-17T19:12:10.468Z,10.43
2022-09-17T19:14:38.404Z,10.48
2022-09-17T19:17:06.597Z,9.45
2022-09-17T19:19:34.627Z,9.88
2022-09-17T19:22:03.117Z,10.70
2022-09-17T19:24:31.188Z,12.73
2022-09-17T19:27:01.676Z,12.10
2022-09-17T19:29:29.802Z,11.93
2022-09-17T19:31:58.214Z,9.75
2022-09-17T19:34:27.538Z,12.32
2022-09-17T19:36:55.533Z,11.35
2022-09-17T19:39:23.829Z,11.25
2022-09-17T19:41:52.175Z,11.30
2022-09-17T19:44:20.427Z,11.20
2022-09-17T19:46:50.125Z,10.48
2022-09-17T19:49:18.469Z,14.30
2022-09-17T19:51:46.567Z,13.07
2022-09-17T19:54:14.760Z,14.98
2022-09-17T19:56:42.756Z,14.82
2022-09-17T19:59:11.647Z,15.13
2022-09-17T20:01:39.982Z,14.65
2022-09-17T20:04:07.954Z,14.90
2022-09-17T20:06:36.296Z,15.05
2022-09-17T20:09:06.233Z,17.30
2022-09-17T20:11:34.308Z,15.45
2022-09-17T20:14:06.797Z,13.25
2022-09-17T20:16:37.728Z,13.77
2022-09-17T20:19:08.994Z,15.20
2022-09-17T20:21:36.960Z,14.25
2022-09-17T20:24:07.279Z,13.07
2022-09-17T20:26:35.918Z,13.95
2022-09-17T20:29:04.572Z,12.75
2022-09-17T20:31:32.706Z,13.95
2022-09-17T20:34:03.191Z,14.07
2022-09-17T20:36:35.505Z,13.52
2022-09-17T20:39:19.464Z,13.70
2022-09-17T20:41:50.351Z,13.90
2022-09-17T20:44:18.570Z,13.40
2022-09-17T20:46:47.034Z,13.85
2022-09-17T20:49:15.770Z,12.60
2022-09-17T20:51:43.665Z,12.45
2022-09-17T20:54:11.975Z,13.13
2022-09-17T20:56:40.312Z,13.90
2022-09-17T20:59:18.754Z,14.18
2022-09-17T21:01:49.957Z,13.07
2022-09-17T21:04:20.614Z,12.45
2022-09-17T21:06:53.787Z,13.07
2022-09-17T21:09:21.812Z,12.25
2022-09-17T21:11:49.882Z,11.32
2022-09-17T21:14:18.761Z,12.00
2022-09-17T21:16:47.027Z,12.07
2022-09-17T21:19:16.848Z,11.50
2022-09-17T21:21:45.499Z,12.45
2022-09-17T21:24:13.477Z,10.88
2022-09-17T21:26:41.459Z,11.43
2022-09-17T21:29:09.830Z,11.77
2022-09-17T21:31:38.602Z,11.60
2022-09-17T21:34:11.517Z,10.82
2022-09-17T21:36:43.473Z,11.65
2022-09-17T21:39:17.741Z,11.20
2022-09-17T21:41:48.130Z,11.68
2022-09-17T21:44:17.169Z,11.55
2022-09-17T21:46:45.378Z,10.82
2022-09-17T21:49:13.659Z,11.30
2022-09-17T21:51:43.404Z,11.23
2022-09-17T21:54:16.028Z,11.45
2022-09-17T21:56:45.144Z,11.68
2022-09-17T21:59:15.635Z,12.30
2022-09-17T22:01:47.194Z,11.63
2022-09-17T22:06:50.299Z,12.32
2022-09-17T22:09:25.512Z,12.77
2022-09-17T22:11:54.103Z,13.05
2022-09-17T22:14:24.636Z,12.25
2022-09-17T22:16:57.158Z,12.00
2022-09-17T22:21:56.196Z,10.98
2022-09-17T22:24:25.448Z,12.85
2022-09-17T22:26:57.749Z,16.88
2022-09-17T22:29:28.672Z,14.70
2022-09-17T22:31:57.426Z,14.20
2022-09-17T22:34:26.509Z,13.05
2022-09-17T22:36:54.607Z,12.73
2022-09-17T22:39:23.713Z,12.45
2022-09-17T22:41:51.787Z,12.05
2022-09-17T22:44:21.041Z,13.13
2022-09-17T22:46:51.796Z,12.10
2022-09-17T22:49:20.443Z,12.53
2022-09-17T22:51:50.055Z,13.23
2022-09-17T22:54:18.641Z,11.75
2022-09-17T22:56:48.537Z,10.95
2022-09-17T22:59:18.568Z,10.98
2022-09-17T23:01:47.019Z,11.55
2022-09-17T23:04:15.179Z,11.85
2022-09-17T23:06:43.785Z,10.98
2022-09-17T23:09:14.072Z,11.32
2022-09-17T23:11:42.570Z,11.00
2022-09-17T23:14:13.430Z,10.82
2022-09-17T23:16:50.512Z,11.30
2022-09-17T23:19:19.066Z,10.82
2022-09-17T23:21:47.466Z,10.07
2022-09-17T23:24:21.809Z,11.13
2022-09-17T23:26:50.619Z,11.00
2022-09-17T23:29:18.847Z,11.48
2022-09-17T23:31:47.952Z,10.88
2022-09-17T23:34:15.913Z,10.43
2022-09-17T23:36:43.992Z,10.65
2022-09-17T23:39:12.588Z,11.25
2022-09-17T23:41:43.510Z,10.63
2022-09-17T23:44:15.580Z,10.25
2022-09-17T23:46:46.239Z,9.80
2022-09-17T23:49:15.748Z,10.75
2022-09-17T23:51:46.659Z,10.07
2022-09-17T23:54:17.919Z,10.15
2022-09-17T23:56:46.011Z,10.05
2022-09-17T23:59:13.899Z,11.57
